sensor_id;sensor_type;location;lat;lon;timestamp;pressure;altitude;pressure_sealevel;temperature;humidity
47430;BME280;33181;49.246;7.372;2023-04-01T00:00:59;97321.03;;;9.35;86.49
47430;BME280;33181;49.246;7.372;2023-04-01T00:03:26;97313.03;;;9.37;86.45
47430;BME280;33181;49.246;7.372;2023-04-01T00:05:54;97314.75;;;9.46;85.85
47430;BME280;33181;49.246;7.372;2023-04-01T00:08:20;97323.34;;;9.38;86.48
47430;BME280;33181;49.246;7.372;2023-04-01T00:10:46;97317.13;;;9.39;86.56
47430;BME280;33181;49.246;7.372;2023-04-01T00:13:12;97318.63;;;9.42;86.28
47430;BME280;33181;49.246;7.372;2023-04-01T00:15:38;97316.59;;;9.36;85.87
47430;BME280;33181;49.246;7.372;2023-04-01T00:18:04;97304.66;;;9.33;86.09
47430;BME280;33181;49.246;7.372;2023-04-01T00:20:30;97309.03;;;9.33;85.50
47430;BME280;33181;49.246;7.372;2023-04-01T00:22:56;97317.13;;;9.39;85.44
47430;BME280;33181;49.246;7.372;2023-04-01T00:25:23;97311.22;;;9.37;85.48
47430;BME280;33181;49.246;7.372;2023-04-01T00:27:49;97302.59;;;9.45;85.02
47430;BME280;33181;49.246;7.372;2023-04-01T00:30:16;97308.44;;;9.39;85.32
47430;BME280;33181;49.246;7.372;2023-04-01T00:32:42;97305.59;;;9.50;84.59
47430;BME280;33181;49.246;7.372;2023-04-01T00:35:08;97311.13;;;9.47;84.57
47430;BME280;33181;49.246;7.372;2023-04-01T00:37:37;97312.72;;;9.40;84.64
47430;BME280;33181;49.246;7.372;2023-04-01T00:40:06;97317.88;;;9.49;84.10
47430;BME280;33181;49.246;7.372;2023-04-01T00:42:32;97323.56;;;9.45;84.59
47430;BME280;33181;49.246;7.372;2023-04-01T00:44:58;97322.94;;;9.51;84.07
47430;BME280;33181;49.246;7.372;2023-04-01T00:47:44;97321.53;;;9.57;84.00
47430;BME280;33181;49.246;7.372;2023-04-01T00:50:10;97322.13;;;9.50;84.64
47430;BME280;33181;49.246;7.372;2023-04-01T00:52:36;97317.09;;;9.57;84.58
47430;BME280;33181;49.246;7.372;2023-04-01T00:55:04;97318.91;;;9.57;84.61
47430;BME280;33181;49.246;7.372;2023-04-01T00:57:36;97309.84;;;9.51;84.68
47430;BME280;33181;49.246;7.372;2023-04-01T01:00:07;97312.63;;;9.49;85.03
47430;BME280;33181;49.246;7.372;2023-04-01T01:02:34;97309.84;;;9.51;85.27
47430;BME280;33181;49.246;7.372;2023-04-01T01:05:00;97308.88;;;9.52;85.70
47430;BME280;33181;49.246;7.372;2023-04-01T01:08:04;97315.09;;;9.51;85.66
47430;BME280;33181;49.246;7.372;2023-04-01T01:10:37;97309.81;;;9.43;86.83
47430;BME280;33181;49.246;7.372;2023-04-01T01:13:25;97313.47;;;9.32;86.77
47430;BME280;33181;49.246;7.372;2023-04-01T01:16:10;97305.69;;;9.40;86.50
47430;BME280;33181;49.246;7.372;2023-04-01T01:22:31;97308.31;;;9.40;85.83
47430;BME280;33181;49.246;7.372;2023-04-01T01:36:09;97311.66;;;9.33;88.96
47430;BME280;33181;49.246;7.372;2023-04-01T01:38:38;97319.69;;;9.31;89.63
47430;BME280;33181;49.246;7.372;2023-04-01T01:41:06;97307.63;;;9.38;89.75
47430;BME280;33181;49.246;7.372;2023-04-01T01:43:44;97311.53;;;9.34;90.46
47430;BME280;33181;49.246;7.372;2023-04-01T01:46:15;97307.72;;;9.28;91.45
47430;BME280;33181;49.246;7.372;2023-04-01T01:48:43;97308.38;;;9.31;90.83
47430;BME280;33181;49.246;7.372;2023-04-01T01:51:11;97298.56;;;9.33;91.01
47430;BME280;33181;49.246;7.372;2023-04-01T01:53:40;97299.41;;;9.33;91.20
47430;BME280;33181;49.246;7.372;2023-04-01T01:56:06;97309.94;;;9.23;91.69
47430;BME280;33181;49.246;7.372;2023-04-01T01:58:35;97304.41;;;9.26;91.87
47430;BME280;33181;49.246;7.372;2023-04-01T02:01:14;97304.78;;;9.14;92.61
47430;BME280;33181;49.246;7.372;2023-04-01T02:03:43;97308.41;;;9.13;93.27
47430;BME280;33181;49.246;7.372;2023-04-01T02:06:14;97308.56;;;9.11;93.54
47430;BME280;33181;49.246;7.372;2023-04-01T02:08:47;97299.50;;;9.05;94.48
47430;BME280;33181;49.246;7.372;2023-04-01T02:11:24;97298.59;;;8.97;95.62
47430;BME280;33181;49.246;7.372;2023-04-01T02:14:30;97302.50;;;8.93;96.35
47430;BME280;33181;49.246;7.372;2023-04-01T02:17:07;97295.88;;;8.89;96.91
47430;BME280;33181;49.246;7.372;2023-04-01T02:20:25;97291.09;;;8.84;98.08
47430;BME280;33181;49.246;7.372;2023-04-01T02:22:33;97295.81;;;8.80;99.24
47430;BME280;33181;49.246;7.372;2023-04-01T02:25:11;97292.16;;;8.73;100.00
47430;BME280;33181;49.246;7.372;2023-04-01T02:27:39;97297.53;;;8.72;100.00
47430;BME280;33181;49.246;7.372;2023-04-01T02:30:06;97301.94;;;8.71;100.00
47430;BME280;33181;49.246;7.372;2023-04-01T02:32:34;97298.34;;;8.54;100.00
47430;BME280;33181;49.246;7.372;2023-04-01T02:35:09;97297.38;;;8.55;100.00
47430;BME280;33181;49.246;7.372;2023-04-01T02:37:39;97298.34;;;8.72;100.00
47430;BME280;33181;49.246;7.372;2023-04-01T02:40:10;97295.50;;;8.66;100.00
47430;BME280;33181;49.246;7.372;2023-04-01T02:42:36;97286.38;;;8.70;100.00
47430;BME280;33181;49.246;7.372;2023-04-01T02:45:04;97283.31;;;8.74;100.00
47430;BME280;33181;49.246;7.372;2023-04-01T02:47:29;97286.94;;;8.73;100.00
47430;BME280;33181;49.246;7.372;2023-04-01T02:49:58;97289.97;;;8.69;100.00
47430;BME280;33181;49.246;7.372;2023-04-01T02:52:33;97293.56;;;8.68;100.00
47430;BME280;33181;49.246;7.372;2023-04-01T02:54:59;97294.78;;;8.73;100.00
47430;BME280;33181;49.246;7.372;2023-04-01T02:57:25;97281.53;;;8.75;100.00
47430;BME280;33181;49.246;7.372;2023-04-01T02:59:51;97289.59;;;8.81;100.00
47430;BME280;33181;49.246;7.372;2023-04-01T03:02:18;97288.63;;;8.65;100.00
47430;BME280;33181;49.246;7.372;2023-04-01T03:04:44;97281.69;;;8.73;100.00
47430;BME280;33181;49.246;7.372;2023-04-01T03:07:10;97280.03;;;8.72;100.00
47430;BME280;33181;49.246;7.372;2023-04-01T03:09:37;97291.47;;;8.71;100.00
47430;BME280;33181;49.246;7.372;2023-04-01T03:12:04;97282.81;;;8.71;100.00
47430;BME280;33181;49.246;7.372;2023-04-01T03:14:30;97279.78;;;8.66;100.00
47430;BME280;33181;49.246;7.372;2023-04-01T03:16:55;97282.28;;;8.67;99.73
47430;BME280;33181;49.246;7.372;2023-04-01T03:19:21;97282.06;;;8.78;98.95
47430;BME280;33181;49.246;7.372;2023-04-01T03:21:47;97284.53;;;8.80;97.88
47430;BME280;33181;49.246;7.372;2023-04-01T03:24:15;97285.25;;;8.72;97.69
47430;BME280;33181;49.246;7.372;2023-04-01T03:26:41;97281.69;;;8.73;98.04
47430;BME280;33181;49.246;7.372;2023-04-01T03:29:06;97281.69;;;8.73;98.22
47430;BME280;33181;49.246;7.372;2023-04-01T03:31:32;97278.69;;;8.68;97.55
47430;BME280;33181;49.246;7.372;2023-04-01T03:33:58;97280.72;;;8.74;97.44
47430;BME280;33181;49.246;7.372;2023-04-01T03:36:23;97275.31;;;8.76;97.22
47430;BME280;33181;49.246;7.372;2023-04-01T03:38:49;97278.53;;;8.88;96.90
47430;BME280;33181;49.246;7.372;2023-04-01T03:41:16;97271.16;;;8.83;95.75
47430;BME280;33181;49.246;7.372;2023-04-01T03:43:43;97267.09;;;8.89;96.43
47430;BME280;33181;49.246;7.372;2023-04-01T03:46:09;97265.00;;;8.74;96.70
47430;BME280;33181;49.246;7.372;2023-04-01T03:48:35;97265.00;;;8.74;96.94
47430;BME280;33181;49.246;7.372;2023-04-01T03:51:01;97261.47;;;8.66;97.88
47430;BME280;33181;49.246;7.372;2023-04-01T03:53:26;97271.75;;;8.77;98.20
47430;BME280;33181;49.246;7.372;2023-04-01T03:55:53;97266.19;;;8.62;99.69
47430;BME280;33181;49.246;7.372;2023-04-01T03:58:19;97266.31;;;8.61;100.00
47430;BME280;33181;49.246;7.372;2023-04-01T04:00:45;97264.56;;;8.61;100.00
47430;BME280;33181;49.246;7.372;2023-04-01T04:03:11;97273.44;;;8.68;100.00
47430;BME280;33181;49.246;7.372;2023-04-01T04:05:37;97266.88;;;8.64;100.00
47430;BME280;33181;49.246;7.372;2023-04-01T04:08:03;97260.28;;;8.60;100.00
47430;BME280;33181;49.246;7.372;2023-04-01T04:10:29;97271.19;;;8.55;100.00
47430;BME280;33181;49.246;7.372;2023-04-01T04:12:56;97263.28;;;8.65;100.00
47430;BME280;33181;49.246;7.372;2023-04-01T04:15:22;97280.09;;;8.63;100.00
47430;BME280;33181;49.246;7.372;2023-04-01T04:17:48;97274.09;;;8.52;100.00
47430;BME280;33181;49.246;7.372;2023-04-01T04:20:14;97269.69;;;8.53;100.00
47430;BME280;33181;49.246;7.372;2023-04-01T04:22:40;97274.25;;;8.51;100.00
47430;BME280;33181;49.246;7.372;2023-04-01T04:25:07;97269.56;;;8.54;100.00
47430;BME280;33181;49.246;7.372;2023-04-01T04:27:33;97261.41;;;8.57;100.00
47430;BME280;33181;49.246;7.372;2023-04-01T04:29:59;97264.22;;;8.46;100.00
47430;BME280;33181;49.246;7.372;2023-04-01T04:32:25;97263.19;;;8.57;100.00
47430;BME280;33181;49.246;7.372;2023-04-01T04:34:51;97260.84;;;8.54;100.00
47430;BME280;33181;49.246;7.372;2023-04-01T04:37:16;97262.06;;;8.59;100.00
47430;BME280;33181;49.246;7.372;2023-04-01T04:39:42;97268.06;;;8.52;100.00
47430;BME280;33181;49.246;7.372;2023-04-01T04:42:08;97262.59;;;8.45;100.00
47430;BME280;33181;49.246;7.372;2023-04-01T04:44:33;97265.44;;;8.52;100.00
47430;BME280;33181;49.246;7.372;2023-04-01T04:46:59;97256.59;;;8.53;100.00
47430;BME280;33181;49.246;7.372;2023-04-01T04:49:25;97256.59;;;8.53;100.00
47430;BME280;33181;49.246;7.372;2023-04-01T04:51:51;97259.75;;;8.56;100.00
47430;BME280;33181;49.246;7.372;2023-04-01T04:54:17;97255.91;;;8.51;100.00
47430;BME280;33181;49.246;7.372;2023-04-01T04:56:43;97262.44;;;8.47;100.00
47430;BME280;33181;49.246;7.372;2023-04-01T04:59:09;97255.97;;;8.41;100.00
47430;BME280;33181;49.246;7.372;2023-04-01T05:01:35;97255.84;;;8.43;100.00
47430;BME280;33181;49.246;7.372;2023-04-01T05:04:00;97252.34;;;8.52;100.00
47430;BME280;33181;49.246;7.372;2023-04-01T05:06:26;97253.25;;;8.43;100.00
47430;BME280;33181;49.246;7.372;2023-04-01T05:08:55;97262.59;;;8.45;100.00
47430;BME280;33181;49.246;7.372;2023-04-01T05:11:21;97263.69;;;8.43;100.00
47430;BME280;33181;49.246;7.372;2023-04-01T05:13:47;97263.00;;;8.41;100.00
47430;BME280;33181;49.246;7.372;2023-04-01T05:16:16;97262.03;;;8.42;100.00
47430;BME280;33181;49.246;7.372;2023-04-01T05:18:42;97261.09;;;8.43;100.00
47430;BME280;33181;49.246;7.372;2023-04-01T05:21:10;97268.66;;;8.36;100.00
47430;BME280;33181;49.246;7.372;2023-04-01T05:23:38;97264.22;;;8.46;100.00
47430;BME280;33181;49.246;7.372;2023-04-01T05:26:12;97258.19;;;8.46;100.00
47430;BME280;33181;49.246;7.372;2023-04-01T05:28:38;97253.31;;;8.51;100.00
47430;BME280;33181;49.246;7.372;2023-04-01T05:31:05;97258.31;;;8.44;100.00
47430;BME280;33181;49.246;7.372;2023-04-01T05:33:31;97262.19;;;8.40;100.00
47430;BME280;33181;49.246;7.372;2023-04-01T05:36:15;97257.66;;;8.42;100.00
47430;BME280;33181;49.246;7.372;2023-04-01T05:38:41;97250.25;;;8.28;100.00
47430;BME280;33181;49.246;7.372;2023-04-01T05:41:14;97253.91;;;8.35;100.00
47430;BME280;33181;49.246;7.372;2023-04-01T05:43:41;97262.03;;;8.42;100.00
47430;BME280;33181;49.246;7.372;2023-04-01T05:46:08;97253.91;;;8.35;100.00
47430;BME280;33181;49.246;7.372;2023-04-01T05:48:34;97243.47;;;8.35;100.00
47430;BME280;33181;49.246;7.372;2023-04-01T05:51:01;97254.91;;;8.34;100.00
47430;BME280;33181;49.246;7.372;2023-04-01T05:53:27;97234.50;;;8.38;100.00
47430;BME280;33181;49.246;7.372;2023-04-01T05:55:55;97252.97;;;8.36;100.00
47430;BME280;33181;49.246;7.372;2023-04-01T05:58:21;97251.91;;;8.39;100.00
47430;BME280;33181;49.246;7.372;2023-04-01T06:00:46;97250.78;;;8.31;100.00
47430;BME280;33181;49.246;7.372;2023-04-01T06:03:12;97261.13;;;8.33;100.00
47430;BME280;33181;49.246;7.372;2023-04-01T06:05:42;97255.19;;;8.31;100.00
47430;BME280;33181;49.246;7.372;2023-04-01T06:08:17;97261.22;;;8.41;100.00
47430;BME280;33181;49.246;7.372;2023-04-01T06:11:01;97263.03;;;8.31;100.00
47430;BME280;33181;49.246;7.372;2023-04-01T06:19:18;97268.97;;;8.33;100.00
47430;BME280;33181;49.246;7.372;2023-04-01T06:25:04;97278.63;;;8.23;100.00
47430;BME280;33181;49.246;7.372;2023-04-01T06:30:42;97273.56;;;8.21;100.00
47430;BME280;33181;49.246;7.372;2023-04-01T06:33:20;97268.44;;;8.29;100.00
47430;BME280;33181;49.246;7.372;2023-04-01T06:56:19;97252.72;;;8.39;100.00
47430;BME280;33181;49.246;7.372;2023-04-01T07:01:54;97245.44;;;8.51;100.00
47430;BME280;33181;49.246;7.372;2023-04-01T07:04:34;97251.91;;;8.39;100.00
47430;BME280;33181;49.246;7.372;2023-04-01T07:09:59;97252.25;;;8.44;100.00
47430;BME280;33181;49.246;7.372;2023-04-01T07:14:59;97255.41;;;8.47;100.00
47430;BME280;33181;49.246;7.372;2023-04-01T07:17:33;97258.41;;;8.52;100.00
47430;BME280;33181;49.246;7.372;2023-04-01T07:20:15;97259.81;;;8.47;100.00
47430;BME280;33181;49.246;7.372;2023-04-01T07:22:46;97265.34;;;8.44;100.00
47430;BME280;33181;49.246;7.372;2023-04-01T07:25:39;97260.56;;;8.39;100.00
47430;BME280;33181;49.246;7.372;2023-04-01T07:28:13;97265.03;;;8.47;100.00
47430;BME280;33181;49.246;7.372;2023-04-01T07:36:24;97270.50;;;8.53;100.00
47430;BME280;33181;49.246;7.372;2023-04-01T07:44:19;97281.91;;;8.62;100.00
47430;BME280;33181;49.246;7.372;2023-04-01T08:00:48;97286.91;;;8.91;100.00
47430;BME280;33181;49.246;7.372;2023-04-01T08:03:52;97279.81;;;8.84;100.00
47430;BME280;33181;49.246;7.372;2023-04-01T08:12:31;97295.38;;;9.03;100.00
47430;BME280;33181;49.246;7.372;2023-04-01T08:15:34;97298.13;;;9.01;100.00
47430;BME280;33181;49.246;7.372;2023-04-01T08:21:32;97311.69;;;8.97;100.00
47430;BME280;33181;49.246;7.372;2023-04-01T08:24:26;97318.78;;;8.87;100.00
47430;BME280;33181;49.246;7.372;2023-04-01T08:26:58;97314.31;;;8.97;100.00
47430;BME280;33181;49.246;7.372;2023-04-01T08:32:15;97318.19;;;9.11;100.00
47430;BME280;33181;49.246;7.372;2023-04-01T08:34:47;97326.34;;;9.25;100.00
47430;BME280;33181;49.246;7.372;2023-04-01T08:37:22;97322.81;;;9.35;100.00
47430;BME280;33181;49.246;7.372;2023-04-01T08:43:59;97324.63;;;9.16;100.00
47430;BME280;33181;49.246;7.372;2023-04-01T08:49:25;97336.69;;;9.27;100.00
47430;BME280;33181;49.246;7.372;2023-04-01T08:55:02;97334.06;;;9.27;100.00
47430;BME280;33181;49.246;7.372;2023-04-01T09:06:37;97336.59;;;9.19;100.00
47430;BME280;33181;49.246;7.372;2023-04-01T09:12:31;97338.16;;;9.29;100.00
47430;BME280;33181;49.246;7.372;2023-04-01T10:56:15;97393.75;;;10.47;100.00
47430;BME280;33181;49.246;7.372;2023-04-01T11:11:12;97403.94;;;10.50;100.00
47430;BME280;33181;49.246;7.372;2023-04-01T11:14:38;97409.03;;;10.26;100.00
47430;BME280;33181;49.246;7.372;2023-04-01T11:23:05;97407.69;;;10.48;100.00
47430;BME280;33181;49.246;7.372;2023-04-01T11:26:36;97409.69;;;10.54;100.00
47430;BME280;33181;49.246;7.372;2023-04-01T11:35:01;97410.22;;;10.57;100.00
47430;BME280;33181;49.246;7.372;2023-04-01T11:47:28;97435.78;;;10.55;100.00
47430;BME280;33181;49.246;7.372;2023-04-01T11:53:05;97433.72;;;10.67;100.00
47430;BME280;33181;49.246;7.372;2023-04-01T12:02:08;97441.00;;;10.47;100.00
47430;BME280;33181;49.246;7.372;2023-04-01T12:08:36;97436.25;;;10.25;100.00
47430;BME280;33181;49.246;7.372;2023-04-01T12:11:32;97450.31;;;10.24;100.00
47430;BME280;33181;49.246;7.372;2023-04-01T12:20:20;97435.34;;;10.34;100.00
47430;BME280;33181;49.246;7.372;2023-04-01T12:26:09;97455.09;;;10.46;98.42
47430;BME280;33181;49.246;7.372;2023-04-01T12:31:38;97454.53;;;10.60;98.46
47430;BME280;33181;49.246;7.372;2023-04-01T12:34:41;97447.97;;;10.64;98.95
47430;BME280;33181;49.246;7.372;2023-04-01T12:46:46;97455.41;;;10.69;96.89
47430;BME280;33181;49.246;7.372;2023-04-01T12:49:45;97456.47;;;10.58;96.82
47430;BME280;33181;49.246;7.372;2023-04-01T13:03:28;97473.03;;;10.51;96.50
47430;BME280;33181;49.246;7.372;2023-04-01T13:12:24;97489.19;;;10.38;94.75
47430;BME280;33181;49.246;7.372;2023-04-01T13:20:54;97491.13;;;10.36;96.91
47430;BME280;33181;49.246;7.372;2023-04-01T13:24:07;97506.88;;;10.36;97.92
47430;BME280;33181;49.246;7.372;2023-04-01T13:29:20;97506.88;;;10.36;96.91
47430;BME280;33181;49.246;7.372;2023-04-01T13:32:27;97513.63;;;10.38;97.35
47430;BME280;33181;49.246;7.372;2023-04-01T13:40:58;97518.19;;;10.36;98.59
47430;BME280;33181;49.246;7.372;2023-04-01T13:43:34;97519.38;;;10.42;99.08
47430;BME280;33181;49.246;7.372;2023-04-01T13:54:59;97524.72;;;10.50;96.84
47430;BME280;33181;49.246;7.372;2023-04-01T14:06:52;97530.59;;;10.52;95.29
47430;BME280;33181;49.246;7.372;2023-04-01T14:09:18;97538.38;;;10.36;94.79
47430;BME280;33181;49.246;7.372;2023-04-01T14:20:34;97533.13;;;10.36;99.97
47430;BME280;33181;49.246;7.372;2023-04-01T14:23:35;97538.31;;;10.28;100.00
47430;BME280;33181;49.246;7.372;2023-04-01T14:29:24;97530.97;;;10.31;100.00
47430;BME280;33181;49.246;7.372;2023-04-01T14:32:31;97543.16;;;10.23;100.00
47430;BME280;33181;49.246;7.372;2023-04-01T14:35:21;97548.91;;;10.08;100.00
47430;BME280;33181;49.246;7.372;2023-04-01T14:41:13;97548.31;;;10.14;99.57
47430;BME280;33181;49.246;7.372;2023-04-01T14:44:17;97552.91;;;10.12;97.95
47430;BME280;33181;49.246;7.372;2023-04-01T14:50:23;97545.78;;;10.23;97.38
47430;BME280;33181;49.246;7.372;2023-04-01T14:58:11;97546.31;;;10.44;97.97
47430;BME280;33181;49.246;7.372;2023-04-01T15:01:12;97561.94;;;10.28;97.45
47430;BME280;33181;49.246;7.372;2023-04-01T15:14:42;97554.13;;;10.62;97.12
47430;BME280;33181;49.246;7.372;2023-04-01T15:28:55;97578.34;;;10.74;91.55
47430;BME280;33181;49.246;7.372;2023-04-01T15:43:26;97591.00;;;10.52;87.90
47430;BME280;33181;49.246;7.372;2023-04-01T15:46:46;97594.22;;;10.46;89.08
47430;BME280;33181;49.246;7.372;2023-04-01T15:49:41;97597.53;;;10.48;88.89
47430;BME280;33181;49.246;7.372;2023-04-01T15:52:43;97599.41;;;10.38;89.33
47430;BME280;33181;49.246;7.372;2023-04-01T15:55:43;97599.25;;;10.21;90.23
47430;BME280;33181;49.246;7.372;2023-04-01T16:07:49;97616.16;;;9.91;93.37
47430;BME280;33181;49.246;7.372;2023-04-01T16:16:07;97624.94;;;9.72;97.23
47430;BME280;33181;49.246;7.372;2023-04-01T16:21:50;97632.53;;;9.75;96.11
47430;BME280;33181;49.246;7.372;2023-04-01T16:24:53;97638.59;;;9.76;95.63
47430;BME280;33181;49.246;7.372;2023-04-01T16:33:00;97635.50;;;9.63;96.97
47430;BME280;33181;49.246;7.372;2023-04-01T16:36:28;97639.38;;;9.59;98.28
47430;BME280;33181;49.246;7.372;2023-04-01T16:42:29;97629.91;;;9.75;97.60
47430;BME280;33181;49.246;7.372;2023-04-01T16:47:49;97623.38;;;9.62;96.24
47430;BME280;33181;49.246;7.372;2023-04-01T16:50:29;97624.13;;;9.72;96.58
47430;BME280;33181;49.246;7.372;2023-04-01T17:01:38;97628.06;;;9.86;95.69
47430;BME280;33181;49.246;7.372;2023-04-01T17:13:33;97638.13;;;9.63;94.37
47430;BME280;33181;49.246;7.372;2023-04-01T17:16:29;97636.03;;;9.66;93.84
47430;BME280;33181;49.246;7.372;2023-04-01T17:28:19;97661.84;;;9.61;93.54
47430;BME280;33181;49.246;7.372;2023-04-01T17:31:02;97664.97;;;9.74;93.62
47430;BME280;33181;49.246;7.372;2023-04-01T17:39:28;97666.25;;;9.61;93.46
47430;BME280;33181;49.246;7.372;2023-04-01T17:48:41;97678.41;;;9.62;93.54
47430;BME280;33181;49.246;7.372;2023-04-01T17:51:33;97686.34;;;9.33;93.90
47430;BME280;33181;49.246;7.372;2023-04-01T17:54:18;97692.28;;;9.35;94.11
47430;BME280;33181;49.246;7.372;2023-04-01T17:57:39;97688.00;;;9.43;93.82
47430;BME280;33181;49.246;7.372;2023-04-01T18:06:08;97693.66;;;9.39;93.95
47430;BME280;33181;49.246;7.372;2023-04-01T18:09:16;97692.25;;;9.44;93.49
47430;BME280;33181;49.246;7.372;2023-04-01T18:20:54;97709.53;;;9.37;93.52
47430;BME280;33181;49.246;7.372;2023-04-01T18:23:52;97712.03;;;9.29;94.06
47430;BME280;33181;49.246;7.372;2023-04-01T18:26:28;97715.63;;;9.28;94.18
47430;BME280;33181;49.246;7.372;2023-04-01T18:29:27;97717.25;;;9.29;93.71
47430;BME280;33181;49.246;7.372;2023-04-01T18:32:26;97720.00;;;9.37;93.51
47430;BME280;33181;49.246;7.372;2023-04-01T18:35:00;97733.94;;;9.38;93.39
47430;BME280;33181;49.246;7.372;2023-04-01T18:37:34;97727.72;;;9.39;93.95
47430;BME280;33181;49.246;7.372;2023-04-01T18:40:34;97733.66;;;9.41;93.39
47430;BME280;33181;49.246;7.372;2023-04-01T18:46:44;97749.53;;;9.29;93.34
47430;BME280;33181;49.246;7.372;2023-04-01T19:06:41;97771.03;;;9.43;92.81
47430;BME280;33181;49.246;7.372;2023-04-01T19:12:12;97779.72;;;9.43;92.90
47430;BME280;33181;49.246;7.372;2023-04-01T19:15:24;97779.28;;;9.48;93.20
47430;BME280;33181;49.246;7.372;2023-04-01T19:27:14;97800.81;;;9.51;92.57
47430;BME280;33181;49.246;7.372;2023-04-01T19:33:08;97807.03;;;9.50;91.93
47430;BME280;33181;49.246;7.372;2023-04-01T19:49:58;97816.00;;;9.28;92.73
47430;BME280;33181;49.246;7.372;2023-04-01T19:52:37;97816.28;;;9.25;93.96
47430;BME280;33181;49.246;7.372;2023-04-01T19:55:37;97823.47;;;9.33;93.10
47430;BME280;33181;49.246;7.372;2023-04-01T19:58:34;97820.84;;;9.43;92.63
47430;BME280;33181;49.246;7.372;2023-04-01T20:01:04;97821.13;;;9.40;92.38
47430;BME280;33181;49.246;7.372;2023-04-01T20:03:56;97830.91;;;9.28;93.04
47430;BME280;33181;49.246;7.372;2023-04-01T20:10:04;97835.31;;;9.27;93.56
47430;BME280;33181;49.246;7.372;2023-04-01T20:15:37;97831.31;;;9.23;93.96
47430;BME280;33181;49.246;7.372;2023-04-01T20:18:36;97833.38;;;9.20;94.04
47430;BME280;33181;49.246;7.372;2023-04-01T20:21:22;97851.72;;;9.29;93.93
47430;BME280;33181;49.246;7.372;2023-04-01T20:27:22;97853.13;;;9.14;95.13
47430;BME280;33181;49.246;7.372;2023-04-01T20:50:50;97872.00;;;9.18;95.77
47430;BME280;33181;49.246;7.372;2023-04-01T21:03:29;97876.66;;;9.04;96.58
47430;BME280;33181;49.246;7.372;2023-04-01T21:12:43;97887.47;;;9.21;95.29
47430;BME280;33181;49.246;7.372;2023-04-01T21:18:38;97885.94;;;9.28;94.36
47430;BME280;33181;49.246;7.372;2023-04-01T21:21:40;97886.06;;;9.26;94.86
47430;BME280;33181;49.246;7.372;2023-04-01T21:50:41;97910.56;;;8.96;96.88
47430;BME280;33181;49.246;7.372;2023-04-01T21:53:44;97897.75;;;9.03;96.70
47430;BME280;33181;49.246;7.372;2023-04-01T22:05:54;97920.63;;;9.01;97.08
47430;BME280;33181;49.246;7.372;2023-04-01T22:08:45;97922.41;;;8.91;97.78
47430;BME280;33181;49.246;7.372;2023-04-01T22:14:47;97925.75;;;9.02;97.82
47430;BME280;33181;49.246;7.372;2023-04-01T22:17:28;97932.50;;;9.05;98.38
47430;BME280;33181;49.246;7.372;2023-04-01T22:20:10;97926.94;;;8.89;99.78
47430;BME280;33181;49.246;7.372;2023-04-01T22:23:20;97925.56;;;8.85;100.00
47430;BME280;33181;49.246;7.372;2023-04-01T22:25:56;97924.31;;;8.89;100.00
47430;BME280;33181;49.246;7.372;2023-04-01T22:31:03;97924.84;;;8.82;100.00
47430;BME280;33181;49.246;7.372;2023-04-01T22:47:45;97927.13;;;8.66;100.00
47430;BME280;33181;49.246;7.372;2023-04-01T22:50:37;97933.94;;;8.78;100.00
47430;BME280;33181;49.246;7.372;2023-04-01T22:53:35;97934.34;;;8.74;100.00
47430;BME280;33181;49.246;7.372;2023-04-01T22:56:12;97934.75;;;8.79;100.00
47430;BME280;33181;49.246;7.372;2023-04-01T22:58:57;97943.06;;;8.84;100.00
47430;BME280;33181;49.246;7.372;2023-04-01T23:01:30;97937.00;;;8.84;100.00
47430;BME280;33181;49.246;7.372;2023-04-01T23:04:00;97941.81;;;8.88;100.00
47430;BME280;33181;49.246;7.372;2023-04-01T23:06:35;97947.19;;;8.77;100.00
47430;BME280;33181;49.246;7.372;2023-04-01T23:09:17;97944.97;;;8.82;100.00
47430;BME280;33181;49.246;7.372;2023-04-01T23:12:26;97938.66;;;8.85;100.00
47430;BME280;33181;49.246;7.372;2023-04-01T23:14:56;97939.72;;;8.82;100.00
47430;BME280;33181;49.246;7.372;2023-04-01T23:29:03;97951.09;;;8.62;100.00
47430;BME280;33181;49.246;7.372;2023-04-01T23:31:41;97957.63;;;8.67;100.00
47430;BME280;33181;49.246;7.372;2023-04-01T23:37:24;97964.13;;;8.82;100.00
47430;BME280;33181;49.246;7.372;2023-04-01T23:42:48;97976.00;;;8.87;100.00
47430;BME280;33181;49.246;7.372;2023-04-01T23:45:02;97981.09;;;8.88;100.00
47430;BME280;33181;49.246;7.372;2023-04-01T23:47:34;97978.63;;;8.87;100.00
47430;BME280;33181;49.246;7.372;2023-04-01T23:50:19;97979.84;;;8.82;100.00
47430;BME280;33181;49.246;7.372;2023-04-01T23:53:21;97979.47;;;8.87;100.00
47430;BME280;33181;49.246;7.372;2023-04-01T23:55:52;97986.31;;;8.78;100.00
47430;BME280;33181;49.246;7.372;2023-04-01T23:58:28;97988.06;;;8.68;100.00
